sensor_id;sensor_type;location;lat;lon;timestamp;P1;durP1;ratioP1;P2;durP2;ratioP2
12798;SDS011;19250;42.646;26.980;2023-04-25T00:00:50;20.10;;;14.02;;
12798;SDS011;19250;42.646;26.980;2023-04-25T00:03:18;15.98;;;13.77;;
12798;SDS011;19250;42.646;26.980;2023-04-25T00:05:46;20.07;;;14.70;;
12798;SDS011;19250;42.646;26.980;2023-04-25T00:08:14;16.88;;;13.38;;
12798;SDS011;19250;42.646;26.980;2023-04-25T00:10:41;14.82;;;12.10;;
12798;SDS011;19250;42.646;26.980;2023-04-25T00:13:09;12.80;;;11.52;;
12798;SDS011;19250;42.646;26.980;2023-04-25T00:15:37;13.97;;;12.43;;
12798;SDS011;19250;42.646;26.980;2023-04-25T00:18:06;14.45;;;12.25;;
12798;SDS011;19250;42.646;26.980;2023-04-25T00:20:35;13.75;;;12.10;;
12798;SDS011;19250;42.646;26.980;2023-04-25T00:23:02;14.02;;;11.85;;
12798;SDS011;19250;42.646;26.980;2023-04-25T00:25:29;14.50;;;11.98;;
12798;SDS011;19250;42.646;26.980;2023-04-25T00:27:56;15.57;;;12.20;;
12798;SDS011;19250;42.646;26.980;2023-04-25T00:30:25;12.55;;;11.32;;
12798;SDS011;19250;42.646;26.980;2023-04-25T00:32:52;11.82;;;10.60;;
12798;SDS011;19250;42.646;26.980;2023-04-25T00:35:20;11.43;;;10.10;;
12798;SDS011;19250;42.646;26.980;2023-04-25T00:37:47;12.95;;;10.40;;
12798;SDS011;19250;42.646;26.980;2023-04-25T00:40:14;11.20;;;10.00;;
12798;SDS011;19250;42.646;26.980;2023-04-25T00:42:42;11.35;;;10.15;;
12798;SDS011;19250;42.646;26.980;2023-04-25T00:45:09;11.88;;;10.27;;
12798;SDS011;19250;42.646;26.980;2023-04-25T00:47:42;13.95;;;12.38;;
12798;SDS011;19250;42.646;26.980;2023-04-25T00:50:09;12.63;;;11.43;;
12798;SDS011;19250;42.646;26.980;2023-04-25T00:52:37;13.68;;;12.20;;
12798;SDS011;19250;42.646;26.980;2023-04-25T00:55:06;35.42;;;26.08;;
12798;SDS011;19250;42.646;26.980;2023-04-25T00:57:34;19.05;;;13.95;;
12798;SDS011;19250;42.646;26.980;2023-04-25T01:00:02;23.20;;;18.65;;
12798;SDS011;19250;42.646;26.980;2023-04-25T01:02:32;20.80;;;17.57;;
12798;SDS011;19250;42.646;26.980;2023-04-25T01:05:02;20.42;;;17.92;;
12798;SDS011;19250;42.646;26.980;2023-04-25T01:07:29;15.93;;;13.27;;
12798;SDS011;19250;42.646;26.980;2023-04-25T01:09:57;13.90;;;11.63;;
12798;SDS011;19250;42.646;26.980;2023-04-25T01:12:24;17.65;;;12.35;;
12798;SDS011;19250;42.646;26.980;2023-04-25T01:14:52;14.98;;;12.00;;
12798;SDS011;19250;42.646;26.980;2023-04-25T01:17:19;14.18;;;12.70;;
12798;SDS011;19250;42.646;26.980;2023-04-25T01:19:46;14.70;;;13.20;;
12798;SDS011;19250;42.646;26.980;2023-04-25T01:22:15;14.80;;;13.23;;
12798;SDS011;19250;42.646;26.980;2023-04-25T01:24:43;17.73;;;14.23;;
12798;SDS011;19250;42.646;26.980;2023-04-25T01:27:11;19.60;;;16.95;;
12798;SDS011;19250;42.646;26.980;2023-04-25T01:29:39;14.63;;;12.68;;
12798;SDS011;19250;42.646;26.980;2023-04-25T01:32:06;13.65;;;11.95;;
12798;SDS011;19250;42.646;26.980;2023-04-25T01:34:34;13.98;;;12.00;;
12798;SDS011;19250;42.646;26.980;2023-04-25T01:37:02;19.38;;;13.90;;
12798;SDS011;19250;42.646;26.980;2023-04-25T01:39:30;15.60;;;12.07;;
12798;SDS011;19250;42.646;26.980;2023-04-25T01:41:58;16.55;;;13.02;;
12798;SDS011;19250;42.646;26.980;2023-04-25T01:44:26;15.55;;;11.55;;
12798;SDS011;19250;42.646;26.980;2023-04-25T01:46:54;16.90;;;13.63;;
12798;SDS011;19250;42.646;26.980;2023-04-25T01:49:21;20.15;;;14.38;;
12798;SDS011;19250;42.646;26.980;2023-04-25T01:51:48;24.00;;;15.50;;
12798;SDS011;19250;42.646;26.980;2023-04-25T01:54:16;22.23;;;15.82;;
12798;SDS011;19250;42.646;26.980;2023-04-25T01:56:50;19.23;;;14.95;;
12798;SDS011;19250;42.646;26.980;2023-04-25T01:59:18;28.45;;;19.10;;
12798;SDS011;19250;42.646;26.980;2023-04-25T02:01:47;24.95;;;18.52;;
12798;SDS011;19250;42.646;26.980;2023-04-25T02:04:14;20.90;;;15.55;;
12798;SDS011;19250;42.646;26.980;2023-04-25T02:06:41;15.45;;;13.10;;
12798;SDS011;19250;42.646;26.980;2023-04-25T02:09:09;13.63;;;12.18;;
12798;SDS011;19250;42.646;26.980;2023-04-25T02:11:36;14.05;;;12.10;;
12798;SDS011;19250;42.646;26.980;2023-04-25T02:14:04;17.70;;;13.50;;
12798;SDS011;19250;42.646;26.980;2023-04-25T02:16:32;18.50;;;14.88;;
12798;SDS011;19250;42.646;26.980;2023-04-25T02:19:00;14.65;;;13.02;;
12798;SDS011;19250;42.646;26.980;2023-04-25T02:21:28;14.18;;;12.18;;
12798;SDS011;19250;42.646;26.980;2023-04-25T02:23:55;13.35;;;11.75;;
12798;SDS011;19250;42.646;26.980;2023-04-25T02:26:23;14.20;;;11.88;;
12798;SDS011;19250;42.646;26.980;2023-04-25T02:28:50;13.43;;;11.43;;
12798;SDS011;19250;42.646;26.980;2023-04-25T02:31:19;15.38;;;12.30;;
12798;SDS011;19250;42.646;26.980;2023-04-25T02:33:47;14.07;;;12.18;;
12798;SDS011;19250;42.646;26.980;2023-04-25T02:36:14;14.75;;;12.77;;
12798;SDS011;19250;42.646;26.980;2023-04-25T02:38:41;14.20;;;12.65;;
12798;SDS011;19250;42.646;26.980;2023-04-25T02:41:09;17.63;;;13.68;;
12798;SDS011;19250;42.646;26.980;2023-04-25T02:43:36;17.67;;;13.48;;
12798;SDS011;19250;42.646;26.980;2023-04-25T02:46:03;15.65;;;13.38;;
12798;SDS011;19250;42.646;26.980;2023-04-25T02:48:32;12.73;;;11.43;;
12798;SDS011;19250;42.646;26.980;2023-04-25T02:50:59;13.88;;;12.48;;
12798;SDS011;19250;42.646;26.980;2023-04-25T02:53:27;14.52;;;12.15;;
12798;SDS011;19250;42.646;26.980;2023-04-25T02:55:54;15.00;;;12.88;;
12798;SDS011;19250;42.646;26.980;2023-04-25T02:58:23;15.95;;;12.65;;
12798;SDS011;19250;42.646;26.980;2023-04-25T03:00:50;16.30;;;13.25;;
12798;SDS011;19250;42.646;26.980;2023-04-25T03:03:18;17.77;;;12.60;;
12798;SDS011;19250;42.646;26.980;2023-04-25T03:05:48;15.75;;;12.95;;
12798;SDS011;19250;42.646;26.980;2023-04-25T03:08:15;16.73;;;13.25;;
12798;SDS011;19250;42.646;26.980;2023-04-25T03:10:43;15.73;;;13.55;;
12798;SDS011;19250;42.646;26.980;2023-04-25T03:13:10;15.13;;;13.43;;
12798;SDS011;19250;42.646;26.980;2023-04-25T03:15:38;15.77;;;13.73;;
12798;SDS011;19250;42.646;26.980;2023-04-25T03:18:05;16.15;;;12.98;;
12798;SDS011;19250;42.646;26.980;2023-04-25T03:20:32;13.38;;;11.75;;
12798;SDS011;19250;42.646;26.980;2023-04-25T03:23:01;16.00;;;12.05;;
12798;SDS011;19250;42.646;26.980;2023-04-25T03:25:28;14.05;;;12.55;;
12798;SDS011;19250;42.646;26.980;2023-04-25T03:27:55;14.85;;;12.55;;
12798;SDS011;19250;42.646;26.980;2023-04-25T03:30:23;17.23;;;12.35;;
12798;SDS011;19250;42.646;26.980;2023-04-25T03:32:50;14.23;;;12.73;;
12798;SDS011;19250;42.646;26.980;2023-04-25T03:35:17;16.20;;;13.25;;
12798;SDS011;19250;42.646;26.980;2023-04-25T03:37:45;14.70;;;12.98;;
12798;SDS011;19250;42.646;26.980;2023-04-25T03:40:16;15.95;;;12.35;;
12798;SDS011;19250;42.646;26.980;2023-04-25T03:42:43;17.98;;;12.95;;
12798;SDS011;19250;42.646;26.980;2023-04-25T03:45:11;13.83;;;12.27;;
12798;SDS011;19250;42.646;26.980;2023-04-25T03:47:38;14.98;;;11.80;;
12798;SDS011;19250;42.646;26.980;2023-04-25T03:50:06;14.43;;;11.50;;
12798;SDS011;19250;42.646;26.980;2023-04-25T03:52:33;14.60;;;10.88;;
12798;SDS011;19250;42.646;26.980;2023-04-25T03:55:01;18.90;;;13.90;;
12798;SDS011;19250;42.646;26.980;2023-04-25T03:57:29;14.23;;;12.33;;
12798;SDS011;19250;42.646;26.980;2023-04-25T03:59:56;13.90;;;11.25;;
12798;SDS011;19250;42.646;26.980;2023-04-25T04:02:24;13.47;;;12.07;;
12798;SDS011;19250;42.646;26.980;2023-04-25T04:04:51;16.13;;;12.45;;
12798;SDS011;19250;42.646;26.980;2023-04-25T04:07:18;18.13;;;12.90;;
12798;SDS011;19250;42.646;26.980;2023-04-25T04:09:46;17.77;;;13.30;;
12798;SDS011;19250;42.646;26.980;2023-04-25T04:12:13;14.32;;;11.38;;
12798;SDS011;19250;42.646;26.980;2023-04-25T04:14:42;11.77;;;9.02;;
12798;SDS011;19250;42.646;26.980;2023-04-25T04:17:09;11.23;;;9.38;;
12798;SDS011;19250;42.646;26.980;2023-04-25T04:19:36;11.52;;;9.57;;
12798;SDS011;19250;42.646;26.980;2023-04-25T04:22:03;13.45;;;10.18;;
12798;SDS011;19250;42.646;26.980;2023-04-25T04:24:31;13.73;;;10.05;;
12798;SDS011;19250;42.646;26.980;2023-04-25T04:26:58;11.18;;;9.27;;
12798;SDS011;19250;42.646;26.980;2023-04-25T04:29:25;10.33;;;8.87;;
12798;SDS011;19250;42.646;26.980;2023-04-25T04:31:54;13.80;;;9.40;;
12798;SDS011;19250;42.646;26.980;2023-04-25T04:34:22;12.52;;;9.13;;
12798;SDS011;19250;42.646;26.980;2023-04-25T04:36:50;13.02;;;10.02;;
12798;SDS011;19250;42.646;26.980;2023-04-25T04:39:17;13.07;;;10.63;;
12798;SDS011;19250;42.646;26.980;2023-04-25T04:41:44;12.13;;;10.43;;
12798;SDS011;19250;42.646;26.980;2023-04-25T04:44:11;18.08;;;13.20;;
12798;SDS011;19250;42.646;26.980;2023-04-25T04:46:40;17.83;;;12.85;;
12798;SDS011;19250;42.646;26.980;2023-04-25T04:49:08;15.82;;;11.25;;
12798;SDS011;19250;42.646;26.980;2023-04-25T04:51:36;14.25;;;11.63;;
12798;SDS011;19250;42.646;26.980;2023-04-25T04:54:03;13.50;;;11.33;;
12798;SDS011;19250;42.646;26.980;2023-04-25T04:56:31;12.52;;;10.23;;
12798;SDS011;19250;42.646;26.980;2023-04-25T04:58:58;14.30;;;10.45;;
12798;SDS011;19250;42.646;26.980;2023-04-25T05:01:27;12.85;;;10.55;;
12798;SDS011;19250;42.646;26.980;2023-04-25T05:03:55;11.82;;;10.25;;
12798;SDS011;19250;42.646;26.980;2023-04-25T05:06:26;15.38;;;10.98;;
12798;SDS011;19250;42.646;26.980;2023-04-25T05:08:55;12.90;;;10.98;;
12798;SDS011;19250;42.646;26.980;2023-04-25T05:11:23;11.13;;;9.88;;
12798;SDS011;19250;42.646;26.980;2023-04-25T05:13:51;10.43;;;9.30;;
12798;SDS011;19250;42.646;26.980;2023-04-25T05:16:19;10.43;;;9.32;;
12798;SDS011;19250;42.646;26.980;2023-04-25T05:18:46;14.70;;;11.93;;
12798;SDS011;19250;42.646;26.980;2023-04-25T05:21:14;17.65;;;14.15;;
12798;SDS011;19250;42.646;26.980;2023-04-25T05:23:43;12.35;;;10.30;;
12798;SDS011;19250;42.646;26.980;2023-04-25T05:26:10;15.35;;;9.68;;
12798;SDS011;19250;42.646;26.980;2023-04-25T05:28:39;15.32;;;12.20;;
12798;SDS011;19250;42.646;26.980;2023-04-25T05:31:07;12.90;;;11.32;;
12798;SDS011;19250;42.646;26.980;2023-04-25T05:33:35;11.77;;;9.55;;
12798;SDS011;19250;42.646;26.980;2023-04-25T05:36:02;11.70;;;9.57;;
12798;SDS011;19250;42.646;26.980;2023-04-25T05:38:30;10.25;;;9.27;;
12798;SDS011;19250;42.646;26.980;2023-04-25T05:40:58;10.45;;;9.18;;
12798;SDS011;19250;42.646;26.980;2023-04-25T05:43:26;11.10;;;9.98;;
12798;SDS011;19250;42.646;26.980;2023-04-25T05:45:53;12.32;;;8.90;;
12798;SDS011;19250;42.646;26.980;2023-04-25T05:48:20;11.98;;;9.93;;
12798;SDS011;19250;42.646;26.980;2023-04-25T05:50:48;11.35;;;10.13;;
12798;SDS011;19250;42.646;26.980;2023-04-25T05:53:16;12.17;;;10.17;;
12798;SDS011;19250;42.646;26.980;2023-04-25T05:55:44;11.52;;;8.50;;
12798;SDS011;19250;42.646;26.980;2023-04-25T05:58:12;12.15;;;10.38;;
12798;SDS011;19250;42.646;26.980;2023-04-25T06:00:39;12.02;;;9.77;;
12798;SDS011;19250;42.646;26.980;2023-04-25T06:03:07;12.50;;;11.23;;
12798;SDS011;19250;42.646;26.980;2023-04-25T06:05:34;8.93;;;8.02;;
12798;SDS011;19250;42.646;26.980;2023-04-25T06:08:02;12.95;;;11.57;;
12798;SDS011;19250;42.646;26.980;2023-04-25T06:10:29;11.03;;;8.47;;
12798;SDS011;19250;42.646;26.980;2023-04-25T06:12:57;13.30;;;10.05;;
12798;SDS011;19250;42.646;26.980;2023-04-25T06:15:25;11.52;;;9.77;;
12798;SDS011;19250;42.646;26.980;2023-04-25T06:17:53;13.27;;;11.50;;
12798;SDS011;19250;42.646;26.980;2023-04-25T06:20:20;14.93;;;13.32;;
12798;SDS011;19250;42.646;26.980;2023-04-25T06:22:49;11.35;;;10.18;;
12798;SDS011;19250;42.646;26.980;2023-04-25T06:25:17;14.55;;;13.05;;
12798;SDS011;19250;42.646;26.980;2023-04-25T06:27:45;9.73;;;8.77;;
12798;SDS011;19250;42.646;26.980;2023-04-25T06:30:12;16.88;;;14.77;;
12798;SDS011;19250;42.646;26.980;2023-04-25T06:32:41;19.02;;;16.17;;
12798;SDS011;19250;42.646;26.980;2023-04-25T06:35:09;25.67;;;19.60;;
12798;SDS011;19250;42.646;26.980;2023-04-25T06:37:36;11.48;;;9.02;;
12798;SDS011;19250;42.646;26.980;2023-04-25T06:40:04;12.40;;;10.80;;
12798;SDS011;19250;42.646;26.980;2023-04-25T06:42:32;13.93;;;12.63;;
12798;SDS011;19250;42.646;26.980;2023-04-25T06:45:00;12.98;;;10.35;;
12798;SDS011;19250;42.646;26.980;2023-04-25T06:47:27;10.60;;;9.23;;
12798;SDS011;19250;42.646;26.980;2023-04-25T06:49:56;12.43;;;9.00;;
12798;SDS011;19250;42.646;26.980;2023-04-25T06:52:23;13.35;;;11.45;;
12798;SDS011;19250;42.646;26.980;2023-04-25T06:54:51;12.02;;;10.10;;
12798;SDS011;19250;42.646;26.980;2023-04-25T06:57:18;13.10;;;11.10;;
12798;SDS011;19250;42.646;26.980;2023-04-25T06:59:45;11.98;;;10.48;;
12798;SDS011;19250;42.646;26.980;2023-04-25T07:02:12;13.77;;;10.68;;
12798;SDS011;19250;42.646;26.980;2023-04-25T07:04:40;11.82;;;10.20;;
12798;SDS011;19250;42.646;26.980;2023-04-25T07:07:08;12.40;;;11.20;;
12798;SDS011;19250;42.646;26.980;2023-04-25T07:09:36;13.97;;;11.27;;
12798;SDS011;19250;42.646;26.980;2023-04-25T07:12:03;13.52;;;11.43;;
12798;SDS011;19250;42.646;26.980;2023-04-25T07:14:31;12.18;;;10.82;;
12798;SDS011;19250;42.646;26.980;2023-04-25T07:16:58;12.38;;;10.55;;
12798;SDS011;19250;42.646;26.980;2023-04-25T07:19:25;12.35;;;10.98;;
12798;SDS011;19250;42.646;26.980;2023-04-25T07:21:55;13.33;;;10.53;;
12798;SDS011;19250;42.646;26.980;2023-04-25T07:24:23;11.82;;;10.60;;
12798;SDS011;19250;42.646;26.980;2023-04-25T07:26:50;14.25;;;12.80;;
12798;SDS011;19250;42.646;26.980;2023-04-25T07:29:18;12.20;;;10.73;;
12798;SDS011;19250;42.646;26.980;2023-04-25T07:31:45;13.32;;;11.10;;
12798;SDS011;19250;42.646;26.980;2023-04-25T07:34:13;11.73;;;9.00;;
12798;SDS011;19250;42.646;26.980;2023-04-25T07:36:40;12.73;;;10.88;;
12798;SDS011;19250;42.646;26.980;2023-04-25T07:39:08;12.68;;;11.35;;
12798;SDS011;19250;42.646;26.980;2023-04-25T07:41:37;11.90;;;10.63;;
12798;SDS011;19250;42.646;26.980;2023-04-25T07:44:04;11.52;;;10.32;;
12798;SDS011;19250;42.646;26.980;2023-04-25T07:46:32;14.18;;;11.57;;
12798;SDS011;19250;42.646;26.980;2023-04-25T07:48:59;13.00;;;9.80;;
12798;SDS011;19250;42.646;26.980;2023-04-25T07:51:26;10.25;;;9.25;;
12798;SDS011;19250;42.646;26.980;2023-04-25T07:53:53;12.65;;;9.88;;
12798;SDS011;19250;42.646;26.980;2023-04-25T07:56:21;11.20;;;9.43;;
12798;SDS011;19250;42.646;26.980;2023-04-25T07:58:50;11.10;;;8.93;;
12798;SDS011;19250;42.646;26.980;2023-04-25T08:01:17;10.38;;;9.30;;
12798;SDS011;19250;42.646;26.980;2023-04-25T08:03:46;10.00;;;8.68;;
12798;SDS011;19250;42.646;26.980;2023-04-25T08:06:14;11.48;;;7.90;;
12798;SDS011;19250;42.646;26.980;2023-04-25T08:08:41;9.88;;;8.88;;
12798;SDS011;19250;42.646;26.980;2023-04-25T08:11:08;10.02;;;9.00;;
12798;SDS011;19250;42.646;26.980;2023-04-25T08:13:36;9.98;;;8.98;;
12798;SDS011;19250;42.646;26.980;2023-04-25T08:16:04;12.15;;;9.43;;
12798;SDS011;19250;42.646;26.980;2023-04-25T08:18:32;13.10;;;9.75;;
12798;SDS011;19250;42.646;26.980;2023-04-25T08:20:59;9.70;;;8.70;;
12798;SDS011;19250;42.646;26.980;2023-04-25T08:23:26;9.95;;;8.77;;
12798;SDS011;19250;42.646;26.980;2023-04-25T08:25:53;11.00;;;9.90;;
12798;SDS011;19250;42.646;26.980;2023-04-25T08:28:21;9.67;;;8.70;;
12798;SDS011;19250;42.646;26.980;2023-04-25T08:30:48;10.20;;;7.53;;
12798;SDS011;19250;42.646;26.980;2023-04-25T08:33:16;8.63;;;7.18;;
12798;SDS011;19250;42.646;26.980;2023-04-25T08:35:44;8.75;;;7.15;;
12798;SDS011;19250;42.646;26.980;2023-04-25T08:38:11;10.73;;;9.63;;
12798;SDS011;19250;42.646;26.980;2023-04-25T08:40:39;9.15;;;7.95;;
12798;SDS011;19250;42.646;26.980;2023-04-25T08:43:06;11.53;;;9.67;;
12798;SDS011;19250;42.646;26.980;2023-04-25T08:45:36;10.80;;;9.47;;
12798;SDS011;19250;42.646;26.980;2023-04-25T08:48:06;9.07;;;8.13;;
12798;SDS011;19250;42.646;26.980;2023-04-25T08:50:38;9.73;;;8.75;;
12798;SDS011;19250;42.646;26.980;2023-04-25T08:53:08;12.73;;;8.13;;
12798;SDS011;19250;42.646;26.980;2023-04-25T08:55:41;8.15;;;7.35;;
12798;SDS011;19250;42.646;26.980;2023-04-25T08:58:09;10.25;;;8.38;;
12798;SDS011;19250;42.646;26.980;2023-04-25T09:00:37;9.23;;;8.25;;
12798;SDS011;19250;42.646;26.980;2023-04-25T09:03:05;10.80;;;7.77;;
12798;SDS011;19250;42.646;26.980;2023-04-25T09:05:33;8.82;;;7.93;;
12798;SDS011;19250;42.646;26.980;2023-04-25T09:08:02;8.50;;;7.70;;
12798;SDS011;19250;42.646;26.980;2023-04-25T09:10:30;6.53;;;5.93;;
12798;SDS011;19250;42.646;26.980;2023-04-25T09:13:03;8.13;;;6.75;;
12798;SDS011;19250;42.646;26.980;2023-04-25T09:15:34;8.23;;;6.90;;
12798;SDS011;19250;42.646;26.980;2023-04-25T09:18:16;7.32;;;6.57;;
12798;SDS011;19250;42.646;26.980;2023-04-25T09:20:51;6.55;;;5.90;;
12798;SDS011;19250;42.646;26.980;2023-04-25T09:23:21;7.50;;;6.40;;
12798;SDS011;19250;42.646;26.980;2023-04-25T09:25:49;7.00;;;6.23;;
12798;SDS011;19250;42.646;26.980;2023-04-25T09:28:22;7.15;;;6.50;;
12798;SDS011;19250;42.646;26.980;2023-04-25T09:30:54;6.78;;;6.18;;
12798;SDS011;19250;42.646;26.980;2023-04-25T09:33:26;7.57;;;6.63;;
12798;SDS011;19250;42.646;26.980;2023-04-25T09:36:00;7.53;;;6.83;;
12798;SDS011;19250;42.646;26.980;2023-04-25T09:38:31;6.53;;;5.45;;
12798;SDS011;19250;42.646;26.980;2023-04-25T09:40:59;6.60;;;6.03;;
12798;SDS011;19250;42.646;26.980;2023-04-25T09:43:27;6.57;;;6.03;;
12798;SDS011;19250;42.646;26.980;2023-04-25T09:45:54;7.57;;;6.68;;
12798;SDS011;19250;42.646;26.980;2023-04-25T09:48:25;8.43;;;6.40;;
12798;SDS011;19250;42.646;26.980;2023-04-25T09:51:03;6.03;;;5.03;;
12798;SDS011;19250;42.646;26.980;2023-04-25T09:53:33;7.07;;;6.38;;
12798;SDS011;19250;42.646;26.980;2023-04-25T09:56:03;6.15;;;5.35;;
12798;SDS011;19250;42.646;26.980;2023-04-25T09:58:32;16.92;;;14.13;;
12798;SDS011;19250;42.646;26.980;2023-04-25T10:01:01;11.27;;;9.73;;
12798;SDS011;19250;42.646;26.980;2023-04-25T10:03:29;9.93;;;8.98;;
12798;SDS011;19250;42.646;26.980;2023-04-25T10:05:58;6.93;;;6.22;;
12798;SDS011;19250;42.646;26.980;2023-04-25T10:08:28;6.75;;;5.47;;
12798;SDS011;19250;42.646;26.980;2023-04-25T10:11:01;7.37;;;6.00;;
12798;SDS011;19250;42.646;26.980;2023-04-25T10:13:30;7.78;;;5.50;;
12798;SDS011;19250;42.646;26.980;2023-04-25T10:15:58;6.40;;;5.22;;
12798;SDS011;19250;42.646;26.980;2023-04-25T10:18:27;8.23;;;6.10;;
12798;SDS011;19250;42.646;26.980;2023-04-25T10:20:55;4.93;;;4.43;;
12798;SDS011;19250;42.646;26.980;2023-04-25T10:23:26;6.75;;;5.57;;
12798;SDS011;19250;42.646;26.980;2023-04-25T10:25:55;4.22;;;3.83;;
12798;SDS011;19250;42.646;26.980;2023-04-25T10:28:25;4.70;;;4.25;;
12798;SDS011;19250;42.646;26.980;2023-04-25T10:30:56;6.10;;;4.82;;
12798;SDS011;19250;42.646;26.980;2023-04-25T10:33:33;4.20;;;3.85;;
12798;SDS011;19250;42.646;26.980;2023-04-25T10:36:08;4.30;;;3.80;;
12798;SDS011;19250;42.646;26.980;2023-04-25T10:38:37;5.50;;;4.10;;
12798;SDS011;19250;42.646;26.980;2023-04-25T10:41:06;4.40;;;4.00;;
12798;SDS011;19250;42.646;26.980;2023-04-25T10:43:37;6.95;;;6.03;;
12798;SDS011;19250;42.646;26.980;2023-04-25T10:46:18;4.25;;;3.80;;
12798;SDS011;19250;42.646;26.980;2023-04-25T10:48:49;4.70;;;4.03;;
12798;SDS011;19250;42.646;26.980;2023-04-25T10:51:17;3.85;;;3.55;;
12798;SDS011;19250;42.646;26.980;2023-04-25T10:53:46;3.93;;;3.63;;
12798;SDS011;19250;42.646;26.980;2023-04-25T10:56:23;3.60;;;3.30;;
12798;SDS011;19250;42.646;26.980;2023-04-25T10:59:03;6.40;;;4.70;;
12798;SDS011;19250;42.646;26.980;2023-04-25T11:01:35;4.50;;;4.10;;
12798;SDS011;19250;42.646;26.980;2023-04-25T11:04:04;3.35;;;3.00;;
12798;SDS011;19250;42.646;26.980;2023-04-25T11:06:34;5.40;;;4.30;;
12798;SDS011;19250;42.646;26.980;2023-04-25T11:09:10;4.95;;;3.90;;
12798;SDS011;19250;42.646;26.980;2023-04-25T11:11:39;4.63;;;3.60;;
12798;SDS011;19250;42.646;26.980;2023-04-25T11:14:08;3.95;;;3.60;;
12798;SDS011;19250;42.646;26.980;2023-04-25T11:16:35;4.45;;;3.80;;
12798;SDS011;19250;42.646;26.980;2023-04-25T11:19:03;3.58;;;3.28;;
12798;SDS011;19250;42.646;26.980;2023-04-25T11:21:30;3.42;;;3.00;;
12798;SDS011;19250;42.646;26.980;2023-04-25T11:23:58;4.00;;;3.70;;
12798;SDS011;19250;42.646;26.980;2023-04-25T11:26:26;3.00;;;2.70;;
12798;SDS011;19250;42.646;26.980;2023-04-25T11:28:57;4.30;;;3.78;;
12798;SDS011;19250;42.646;26.980;2023-04-25T11:31:27;2.67;;;2.47;;
12798;SDS011;19250;42.646;26.980;2023-04-25T11:33:54;2.85;;;2.65;;
12798;SDS011;19250;42.646;26.980;2023-04-25T11:36:23;3.40;;;3.10;;
12798;SDS011;19250;42.646;26.980;2023-04-25T11:38:52;3.22;;;2.90;;
12798;SDS011;19250;42.646;26.980;2023-04-25T11:41:20;5.03;;;3.20;;
12798;SDS011;19250;42.646;26.980;2023-04-25T11:43:47;5.25;;;4.32;;
12798;SDS011;19250;42.646;26.980;2023-04-25T11:46:16;8.40;;;7.43;;
12798;SDS011;19250;42.646;26.980;2023-04-25T11:48:46;4.82;;;4.25;;
12798;SDS011;19250;42.646;26.980;2023-04-25T11:51:15;6.95;;;6.13;;
12798;SDS011;19250;42.646;26.980;2023-04-25T11:53:44;5.33;;;4.83;;
12798;SDS011;19250;42.646;26.980;2023-04-25T11:56:12;5.75;;;5.25;;
12798;SDS011;19250;42.646;26.980;2023-04-25T11:58:55;5.53;;;4.20;;
12798;SDS011;19250;42.646;26.980;2023-04-25T12:01:27;4.15;;;3.85;;
12798;SDS011;19250;42.646;26.980;2023-04-25T12:03:57;6.22;;;5.72;;
12798;SDS011;19250;42.646;26.980;2023-04-25T12:06:28;5.05;;;3.88;;
12798;SDS011;19250;42.646;26.980;2023-04-25T12:08:59;3.78;;;2.80;;
12798;SDS011;19250;42.646;26.980;2023-04-25T12:11:30;3.17;;;2.90;;
12798;SDS011;19250;42.646;26.980;2023-04-25T12:14:01;4.07;;;3.22;;
12798;SDS011;19250;42.646;26.980;2023-04-25T12:16:39;3.45;;;3.00;;
12798;SDS011;19250;42.646;26.980;2023-04-25T12:19:09;3.40;;;3.10;;
12798;SDS011;19250;42.646;26.980;2023-04-25T12:21:39;4.10;;;3.35;;
12798;SDS011;19250;42.646;26.980;2023-04-25T12:24:10;4.50;;;3.95;;
12798;SDS011;19250;42.646;26.980;2023-04-25T12:26:46;4.55;;;3.90;;
12798;SDS011;19250;42.646;26.980;2023-04-25T12:29:18;4.47;;;3.70;;
12798;SDS011;19250;42.646;26.980;2023-04-25T12:31:46;4.30;;;3.00;;
12798;SDS011;19250;42.646;26.980;2023-04-25T12:34:15;4.07;;;3.20;;
12798;SDS011;19250;42.646;26.980;2023-04-25T12:36:42;3.63;;;3.33;;
12798;SDS011;19250;42.646;26.980;2023-04-25T12:39:14;6.28;;;3.70;;
12798;SDS011;19250;42.646;26.980;2023-04-25T12:41:42;3.20;;;2.90;;
12798;SDS011;19250;42.646;26.980;2023-04-25T12:44:09;5.10;;;3.70;;
12798;SDS011;19250;42.646;26.980;2023-04-25T12:46:37;5.50;;;3.20;;
12798;SDS011;19250;42.646;26.980;2023-04-25T12:49:06;4.65;;;3.33;;
12798;SDS011;19250;42.646;26.980;2023-04-25T12:51:35;3.55;;;3.22;;
12798;SDS011;19250;42.646;26.980;2023-04-25T12:54:03;4.25;;;3.90;;
12798;SDS011;19250;42.646;26.980;2023-04-25T12:56:32;4.68;;;3.70;;
12798;SDS011;19250;42.646;26.980;2023-04-25T12:58:59;5.35;;;2.90;;
12798;SDS011;19250;42.646;26.980;2023-04-25T13:01:28;7.10;;;4.72;;
12798;SDS011;19250;42.646;26.980;2023-04-25T13:03:55;10.20;;;2.60;;
12798;SDS011;19250;42.646;26.980;2023-04-25T13:06:23;6.93;;;2.13;;
12798;SDS011;19250;42.646;26.980;2023-04-25T13:08:52;4.80;;;2.30;;
12798;SDS011;19250;42.646;26.980;2023-04-25T13:11:20;6.80;;;3.47;;
12798;SDS011;19250;42.646;26.980;2023-04-25T13:13:47;2.78;;;2.30;;
12798;SDS011;19250;42.646;26.980;2023-04-25T13:16:14;2.03;;;1.77;;
12798;SDS011;19250;42.646;26.980;2023-04-25T13:18:42;7.65;;;3.08;;
12798;SDS011;19250;42.646;26.980;2023-04-25T13:21:09;2.53;;;1.83;;
12798;SDS011;19250;42.646;26.980;2023-04-25T13:23:37;2.33;;;2.10;;
12798;SDS011;19250;42.646;26.980;2023-04-25T13:26:07;3.13;;;2.25;;
12798;SDS011;19250;42.646;26.980;2023-04-25T13:28:34;2.50;;;2.25;;
12798;SDS011;19250;42.646;26.980;2023-04-25T13:31:01;3.07;;;2.60;;
12798;SDS011;19250;42.646;26.980;2023-04-25T13:33:29;4.25;;;3.85;;
12798;SDS011;19250;42.646;26.980;2023-04-25T13:35:56;1.95;;;1.85;;
12798;SDS011;19250;42.646;26.980;2023-04-25T13:38:24;3.33;;;2.30;;
12798;SDS011;19250;42.646;26.980;2023-04-25T13:40:52;2.93;;;2.63;;
12798;SDS011;19250;42.646;26.980;2023-04-25T13:43:21;4.43;;;4.03;;
12798;SDS011;19250;42.646;26.980;2023-04-25T13:45:49;3.15;;;2.95;;
12798;SDS011;19250;42.646;26.980;2023-04-25T13:48:17;2.50;;;2.22;;
12798;SDS011;19250;42.646;26.980;2023-04-25T13:50:45;3.05;;;2.85;;
12798;SDS011;19250;42.646;26.980;2023-04-25T13:53:12;2.40;;;2.20;;
12798;SDS011;19250;42.646;26.980;2023-04-25T13:55:39;2.67;;;2.40;;
12798;SDS011;19250;42.646;26.980;2023-04-25T13:58:07;3.10;;;2.30;;
12798;SDS011;19250;42.646;26.980;2023-04-25T14:00:37;2.30;;;2.10;;
12798;SDS011;19250;42.646;26.980;2023-04-25T14:03:05;3.47;;;2.17;;
12798;SDS011;19250;42.646;26.980;2023-04-25T14:05:34;3.33;;;2.00;;
12798;SDS011;19250;42.646;26.980;2023-04-25T14:08:05;3.20;;;2.53;;
12798;SDS011;19250;42.646;26.980;2023-04-25T14:10:33;3.60;;;2.80;;
12798;SDS011;19250;42.646;26.980;2023-04-25T14:13:01;4.43;;;3.45;;
12798;SDS011;19250;42.646;26.980;2023-04-25T14:15:30;3.28;;;2.63;;
12798;SDS011;19250;42.646;26.980;2023-04-25T14:17:59;6.82;;;3.10;;
12798;SDS011;19250;42.646;26.980;2023-04-25T14:20:27;5.40;;;3.97;;
12798;SDS011;19250;42.646;26.980;2023-04-25T14:22:55;3.80;;;3.42;;
12798;SDS011;19250;42.646;26.980;2023-04-25T14:25:23;3.88;;;3.05;;
12798;SDS011;19250;42.646;26.980;2023-04-25T14:27:50;5.88;;;3.90;;